createdAt,value
2022-11-21T00:01:32.294Z,-4.84
2022-11-21T00:04:59.645Z,-4.85
2022-11-21T00:08:26.482Z,-4.89
2022-11-21T00:11:54.849Z,-4.95
2022-11-21T00:15:21.666Z,-5.01
2022-11-21T00:18:49.238Z,-5.06
2022-11-21T00:22:15.959Z,-5.09
2022-11-21T00:25:42.586Z,-5.11
2022-11-21T00:29:09.676Z,-5.11
2022-11-21T00:32:37.112Z,-5.12
2022-11-21T00:36:10.628Z,-5.12
2022-11-21T00:39:37.253Z,-5.13
2022-11-21T00:43:04.168Z,-5.15
2022-11-21T00:46:30.809Z,-5.16
2022-11-21T00:49:57.766Z,-5.20
2022-11-21T00:53:24.872Z,-5.25
2022-11-21T00:56:51.704Z,-5.29
2022-11-21T01:00:20.454Z,-5.33
2022-11-21T01:03:47.349Z,-5.36
2022-11-21T01:07:15.679Z,-5.40
2022-11-21T01:10:42.373Z,-5.44
2022-11-21T01:14:09.427Z,-5.48
2022-11-21T01:17:36.670Z,-5.50
2022-11-21T01:21:05.262Z,-5.51
2022-11-21T01:24:32.453Z,-5.50
2022-11-21T01:27:59.320Z,-5.47
2022-11-21T01:31:28.154Z,-5.41
2022-11-21T01:34:54.980Z,-5.30
2022-11-21T01:38:21.680Z,-5.17
2022-11-21T01:41:48.542Z,-5.04
2022-11-21T01:45:46.765Z,-4.92
2022-11-21T01:49:16.675Z,-4.80
2022-11-21T01:52:43.527Z,-4.70
2022-11-21T01:56:11.557Z,-4.60
2022-11-21T01:59:44.453Z,-4.50
2022-11-21T02:03:16.727Z,-4.39
2022-11-21T02:06:44.704Z,-4.28
2022-11-21T02:10:13.207Z,-4.18
2022-11-21T02:13:40.198Z,-4.08
2022-11-21T02:17:10.409Z,-3.98
2022-11-21T02:20:40.096Z,-3.88
2022-11-21T02:24:13.606Z,-3.78
2022-11-21T02:27:41.043Z,-3.69
2022-11-21T02:31:07.838Z,-3.59
2022-11-21T02:34:34.942Z,-3.50
2022-11-21T02:38:03.506Z,-3.42
2022-11-21T02:41:34.587Z,-3.34
2022-11-21T02:45:09.003Z,-3.25
2022-11-21T02:48:37.360Z,-3.18
2022-11-21T02:52:04.343Z,-3.11
2022-11-21T02:55:31.037Z,-3.05
2022-11-21T02:58:57.770Z,-3.02
2022-11-21T03:02:24.808Z,-3.00
2022-11-21T03:05:51.718Z,-2.97
2022-11-21T03:09:18.444Z,-2.97
2022-11-21T03:12:46.723Z,-2.97
2022-11-21T03:16:13.369Z,-2.96
2022-11-21T03:19:40.084Z,-2.95
2022-11-21T03:23:06.935Z,-2.95
2022-11-21T03:26:33.864Z,-2.94
2022-11-21T03:30:00.632Z,-2.93
2022-11-21T03:33:27.624Z,-2.93
2022-11-21T03:36:54.892Z,-2.93
2022-11-21T03:40:21.806Z,-2.90
2022-11-21T03:43:49.160Z,-2.88
2022-11-21T03:47:18.150Z,-2.86
2022-11-21T03:50:46.690Z,-2.86
2022-11-21T03:54:13.936Z,-2.86
2022-11-21T03:57:41.815Z,-2.88
2022-11-21T04:01:09.134Z,-2.89
2022-11-21T04:04:36.203Z,-2.90
2022-11-21T04:08:02.871Z,-2.91
2022-11-21T04:11:30.627Z,-2.92
2022-11-21T04:14:57.969Z,-2.93
2022-11-21T04:18:25.253Z,-2.92
2022-11-21T04:21:52.086Z,-2.91
2022-11-21T04:25:19.057Z,-2.92
2022-11-21T04:28:45.991Z,-2.91
2022-11-21T04:32:12.828Z,-2.89
2022-11-21T04:35:39.684Z,-2.88
2022-11-21T04:39:06.847Z,-2.87
2022-11-21T04:42:33.644Z,-2.84
2022-11-21T04:46:00.470Z,-2.81
2022-11-21T04:49:27.400Z,-2.79
2022-11-21T04:52:55.046Z,-2.77
2022-11-21T04:56:21.878Z,-2.74
2022-11-21T04:59:48.909Z,-2.72
2022-11-21T05:03:16.345Z,-2.68
2022-11-21T05:06:43.017Z,-2.66
2022-11-21T05:10:11.327Z,-2.64
2022-11-21T05:13:38.420Z,-2.62
2022-11-21T05:17:05.105Z,-2.59
2022-11-21T05:20:35.753Z,-2.58
2022-11-21T05:24:04.246Z,-2.56
2022-11-21T05:27:30.958Z,-2.56
2022-11-21T05:30:57.817Z,-2.56
2022-11-21T05:34:24.881Z,-2.56
2022-11-21T05:37:56.094Z,-2.57
2022-11-21T05:41:27.279Z,-2.56
2022-11-21T05:44:54.338Z,-2.57
2022-11-21T05:48:21.471Z,-2.57
2022-11-21T05:51:48.227Z,-2.58
2022-11-21T05:55:15.239Z,-2.58
2022-11-21T05:58:42.385Z,-2.59
2022-11-21T06:02:27.058Z,-2.58
2022-11-21T06:05:53.752Z,-2.57
2022-11-21T06:09:20.555Z,-2.56
2022-11-21T06:12:47.301Z,-2.54
2022-11-21T06:16:15.847Z,-2.51
2022-11-21T06:19:42.412Z,-2.48
2022-11-21T06:23:09.017Z,-2.46
2022-11-21T06:26:35.652Z,-2.45
2022-11-21T06:30:02.713Z,-2.44
2022-11-21T06:33:29.996Z,-2.44
2022-11-21T06:36:56.906Z,-2.42
2022-11-21T06:40:23.732Z,-2.41
2022-11-21T06:43:50.625Z,-2.40
2022-11-21T06:47:17.231Z,-2.38
2022-11-21T06:50:43.870Z,-2.36
2022-11-21T06:54:16.244Z,-2.34
2022-11-21T06:57:43.634Z,-2.31
2022-11-21T07:01:12.146Z,-2.28
2022-11-21T07:04:39.036Z,-2.26
2022-11-21T07:08:11.914Z,-2.24
2022-11-21T07:11:40.035Z,-2.21
2022-11-21T07:15:08.291Z,-2.19
2022-11-21T07:18:35.485Z,-2.16
2022-11-21T07:22:02.998Z,-2.13
2022-11-21T07:25:35.230Z,-2.11
2022-11-21T07:29:03.774Z,-2.12
2022-11-21T07:32:30.587Z,-2.10
2022-11-21T07:35:58.351Z,-2.10
2022-11-21T07:39:25.226Z,-2.09
2022-11-21T07:42:52.266Z,-2.09
2022-11-21T07:46:18.993Z,-2.07
2022-11-21T07:49:45.653Z,-2.06
2022-11-21T07:53:13.225Z,-2.06
2022-11-21T07:56:39.807Z,-2.04
2022-11-21T08:00:09.658Z,-2.04
2022-11-21T08:03:36.306Z,-2.03
2022-11-21T08:07:03.566Z,-2.01
2022-11-21T08:10:30.635Z,-1.99
2022-11-21T08:13:57.570Z,-1.94
2022-11-21T08:17:26.750Z,-1.89
2022-11-21T08:20:53.366Z,-1.85
2022-11-21T08:24:20.082Z,-1.83
2022-11-21T08:27:46.656Z,-1.81
2022-11-21T08:31:14.296Z,-1.78
2022-11-21T08:34:40.935Z,-1.76
2022-11-21T08:38:07.807Z,-1.72
2022-11-21T08:41:53.142Z,-1.68
2022-11-21T08:45:19.927Z,-1.65
2022-11-21T08:48:46.670Z,-1.63
2022-11-21T08:52:13.331Z,-1.59
2022-11-21T08:55:39.939Z,-1.54
2022-11-21T08:59:06.753Z,-1.47
2022-11-21T09:02:33.578Z,-1.41
2022-11-21T09:06:01.085Z,-1.35
2022-11-21T09:09:28.092Z,-1.28
2022-11-21T09:12:54.913Z,-1.21
2022-11-21T09:16:39.501Z,-1.15
2022-11-21T09:20:08.113Z,-1.11
2022-11-21T09:23:34.722Z,-1.08
2022-11-21T09:27:01.772Z,-1.06
2022-11-21T09:30:28.401Z,-1.00
2022-11-21T09:33:55.328Z,-0.97
2022-11-21T09:37:22.426Z,-0.91
2022-11-21T09:40:50.840Z,-0.87
2022-11-21T09:44:33.170Z,-0.84
2022-11-21T09:48:00.205Z,-0.81
2022-11-21T09:51:30.496Z,-0.77
2022-11-21T09:55:04.597Z,-0.75
2022-11-21T09:58:37.764Z,-0.72
2022-11-21T10:02:14.784Z,-0.68
2022-11-21T10:05:47.027Z,-0.65
2022-11-21T10:09:26.680Z,-0.62
2022-11-21T10:13:01.367Z,-0.59
2022-11-21T10:16:38.012Z,-0.56
2022-11-21T10:20:29.320Z,-0.52
2022-11-21T10:24:11.570Z,-0.47
2022-11-21T10:27:43.804Z,-0.45
2022-11-21T10:31:13.313Z,-0.40
2022-11-21T10:34:39.568Z,-0.35
2022-11-21T10:38:20.581Z,-0.35
2022-11-21T10:41:52.835Z,-0.33
2022-11-21T10:45:20.508Z,-0.34
2022-11-21T10:48:55.891Z,-0.33
2022-11-21T10:52:27.228Z,-0.27
2022-11-21T10:56:03.246Z,-0.20
2022-11-21T10:59:31.930Z,-0.12
2022-11-21T11:03:18.016Z,0.04
2022-11-21T11:06:46.823Z,0.26
2022-11-21T11:10:28.209Z,0.45
2022-11-21T11:13:59.934Z,0.54
2022-11-21T11:17:35.139Z,0.54
2022-11-21T11:21:15.956Z,0.54
2022-11-21T11:24:57.584Z,0.45
2022-11-21T11:28:27.914Z,0.41
2022-11-21T11:31:58.842Z,0.47
2022-11-21T11:35:28.133Z,0.53
2022-11-21T11:38:58.778Z,0.61
2022-11-21T11:43:04.521Z,0.63
2022-11-21T11:47:02.934Z,0.62
2022-11-21T11:50:38.099Z,0.58
2022-11-21T11:54:09.492Z,0.52
2022-11-21T11:57:38.904Z,0.52
2022-11-21T12:01:11.319Z,0.50
2022-11-21T12:04:46.988Z,0.47
2022-11-21T12:12:16.304Z,0.28
2022-11-21T12:15:50.485Z,0.20
2022-11-21T12:19:18.720Z,0.12
2022-11-21T12:22:48.612Z,0.04
2022-11-21T12:26:35.891Z,0.06
2022-11-21T12:30:22.013Z,0.07
2022-11-21T12:34:03.868Z,0.02
2022-11-21T12:37:43.504Z,-0.03
2022-11-21T12:41:41.375Z,-0.11
2022-11-21T12:45:28.901Z,-0.25
2022-11-21T12:49:32.734Z,-0.39
2022-11-21T12:53:32.484Z,-0.50
2022-11-21T12:57:09.109Z,-0.57
2022-11-21T13:00:47.950Z,-0.61
2022-11-21T13:04:19.407Z,-0.64
2022-11-21T13:07:47.420Z,-0.67
2022-11-21T13:11:41.087Z,-0.70
2022-11-21T13:15:18.729Z,-0.74
2022-11-21T13:18:48.243Z,-0.77
2022-11-21T13:22:27.144Z,-0.77
2022-11-21T13:25:53.899Z,-0.80
2022-11-21T13:29:20.818Z,-0.79
2022-11-21T13:32:49.757Z,-0.81
2022-11-21T13:36:42.026Z,-0.85
2022-11-21T13:40:39.702Z,-0.93
2022-11-21T13:44:39.950Z,-0.98
2022-11-21T13:48:23.454Z,-1.00
2022-11-21T13:51:56.411Z,-0.99
2022-11-21T13:55:42.473Z,-0.98
2022-11-21T13:59:28.061Z,-0.93
2022-11-21T14:03:33.067Z,-0.91
2022-11-21T14:07:22.500Z,-0.93
2022-11-21T14:10:51.621Z,-1.01
2022-11-21T14:14:35.882Z,-1.01
2022-11-21T14:18:03.581Z,-1.00
2022-11-21T14:21:32.961Z,-1.01
2022-11-21T14:25:00.629Z,-1.00
2022-11-21T14:28:29.033Z,-0.99
2022-11-21T14:31:56.870Z,-0.98
2022-11-21T14:35:25.631Z,-0.99
2022-11-21T14:39:21.139Z,-0.98
2022-11-21T14:42:42.167Z,-0.99
2022-11-21T14:46:17.101Z,-0.99
2022-11-21T14:49:51.807Z,-1.04
2022-11-21T14:53:18.519Z,-1.11
2022-11-21T14:56:47.921Z,-1.16
2022-11-21T15:00:58.720Z,-1.19
2022-11-21T15:04:15.103Z,-1.24
2022-11-21T15:07:45.581Z,-1.26
2022-11-21T15:11:13.239Z,-1.24
2022-11-21T15:14:44.063Z,-1.23
2022-11-21T15:18:27.896Z,-1.23
2022-11-21T15:21:58.216Z,-1.19
2022-11-21T15:25:26.628Z,-1.17
2022-11-21T15:28:59.489Z,-1.16
2022-11-21T15:32:26.319Z,-1.12
2022-11-21T15:35:56.960Z,-1.08
2022-11-21T15:39:24.889Z,-1.06
2022-11-21T15:42:51.727Z,-1.05
2022-11-21T15:46:21.712Z,-1.05
2022-11-21T15:50:04.085Z,-1.06
2022-11-21T15:53:30.801Z,-1.10
2022-11-21T15:56:57.425Z,-1.11
2022-11-21T16:00:24.604Z,-1.10
2022-11-21T16:03:54.781Z,-1.10
2022-11-21T16:07:21.504Z,-1.10
2022-11-21T16:10:48.705Z,-1.10
2022-11-21T16:14:18.374Z,-1.10
2022-11-21T16:17:47.352Z,-1.10
2022-11-21T16:21:14.721Z,-1.11
2022-11-21T16:24:41.389Z,-1.11
2022-11-21T16:28:08.209Z,-1.12
2022-11-21T16:31:35.416Z,-1.13
2022-11-21T16:35:02.032Z,-1.16
2022-11-21T16:38:30.458Z,-1.19
2022-11-21T16:41:57.633Z,-1.23
2022-11-21T16:45:24.763Z,-1.23
2022-11-21T16:48:58.124Z,-1.21
2022-11-21T16:52:26.457Z,-1.19
2022-11-21T16:56:02.371Z,-1.17
2022-11-21T16:59:29.265Z,-1.15
2022-11-21T17:02:57.116Z,-1.13
2022-11-21T17:06:27.210Z,-1.15
2022-11-21T17:09:54.182Z,-1.14
2022-11-21T17:13:21.117Z,-1.14
2022-11-21T17:16:49.993Z,-1.14
2022-11-21T17:20:16.944Z,-1.14
2022-11-21T17:23:45.331Z,-1.14
2022-11-21T17:27:13.118Z,-1.12
2022-11-21T17:30:44.074Z,-1.10
2022-11-21T17:34:11.740Z,-1.07
2022-11-21T17:37:38.897Z,-1.04
2022-11-21T17:41:07.541Z,-1.01
2022-11-21T17:44:34.458Z,-0.99
2022-11-21T17:48:01.128Z,-0.99
2022-11-21T17:51:32.257Z,-1.02
2022-11-21T17:54:59.074Z,-1.00
2022-11-21T17:58:26.110Z,-0.99
2022-11-21T18:01:53.197Z,-0.97
2022-11-21T18:05:20.465Z,-0.94
2022-11-21T18:08:49.210Z,-0.96
2022-11-21T18:12:16.360Z,-0.97
2022-11-21T18:15:43.576Z,-0.96
2022-11-21T18:19:12.292Z,-0.94
2022-11-21T18:22:39.522Z,-0.91
2022-11-21T18:26:08.072Z,-0.89
2022-11-21T18:29:36.597Z,-0.88
2022-11-21T18:33:04.688Z,-0.87
2022-11-21T18:36:32.971Z,-0.86
2022-11-21T18:39:59.612Z,-0.86
2022-11-21T18:43:26.606Z,-0.86
2022-11-21T18:46:53.754Z,-0.85
2022-11-21T18:50:20.752Z,-0.84
2022-11-21T18:53:51.350Z,-0.82
2022-11-21T18:57:18.184Z,-0.82
2022-11-21T19:00:44.973Z,-0.82
2022-11-21T19:04:11.882Z,-0.80
2022-11-21T19:07:38.620Z,-0.79
2022-11-21T19:11:06.761Z,-0.80
2022-11-21T19:14:33.685Z,-0.80
2022-11-21T19:18:00.382Z,-0.80
2022-11-21T19:30:55.325Z,-0.75
2022-11-21T19:34:22.258Z,-0.75
2022-11-21T19:37:49.104Z,-0.76
2022-11-21T19:41:19.866Z,-0.76
2022-11-21T19:44:47.939Z,-0.77
2022-11-21T19:48:15.039Z,-0.78
2022-11-21T19:51:42.976Z,-0.82
2022-11-21T19:55:11.866Z,-1.00
2022-11-21T19:58:39.238Z,-1.19
2022-11-21T20:02:06.315Z,-1.39
2022-11-21T20:05:33.285Z,-1.51
2022-11-21T20:09:01.822Z,-1.62
2022-11-21T20:12:28.696Z,-1.72
2022-11-21T20:15:55.408Z,-1.84
2022-11-21T20:19:24.076Z,-1.94
2022-11-21T20:22:52.249Z,-2.02
2022-11-21T20:26:20.666Z,-2.09
2022-11-21T20:29:47.887Z,-2.18
2022-11-21T20:33:14.580Z,-2.23
2022-11-21T20:36:42.536Z,-2.26
2022-11-21T20:40:11.562Z,-2.30
2022-11-21T20:44:24.430Z,-2.33
2022-11-21T20:47:25.031Z,-2.37
2022-11-21T20:54:42.891Z,-2.41
2022-11-21T20:58:09.739Z,-2.44
2022-11-21T21:01:36.548Z,-2.48
2022-11-21T21:05:03.317Z,-2.48
2022-11-21T21:08:30.667Z,-2.49
2022-11-21T21:11:57.463Z,-2.50
2022-11-21T21:15:24.352Z,-2.50
2022-11-21T21:18:53.480Z,-2.48
2022-11-21T21:22:20.790Z,-2.47
2022-11-21T21:25:49.129Z,-2.42
2022-11-21T21:29:18.440Z,-2.36
2022-11-21T21:32:43.795Z,-2.33
2022-11-21T21:36:12.581Z,-2.32
2022-11-21T21:39:39.317Z,-2.31
2022-11-21T21:43:05.964Z,-2.28
2022-11-21T21:46:33.094Z,-2.26
2022-11-21T21:50:00.084Z,-2.22
2022-11-21T21:53:27.290Z,-2.20
2022-11-21T21:56:54.283Z,-2.16
2022-11-21T22:00:21.614Z,-2.11
2022-11-21T22:03:49.709Z,-2.07
2022-11-21T22:07:16.449Z,-2.01
2022-11-21T22:10:43.552Z,-1.96
2022-11-21T22:14:14.508Z,-1.91
2022-11-21T22:17:41.289Z,-1.88
2022-11-21T22:21:16.513Z,-1.85
2022-11-21T22:24:43.936Z,-1.84
2022-11-21T22:28:10.882Z,-1.83
2022-11-21T22:31:38.199Z,-1.82
2022-11-21T22:35:05.507Z,-1.80
2022-11-21T22:38:32.660Z,-1.77
2022-11-21T22:42:00.071Z,-1.76
2022-11-21T22:45:27.074Z,-1.76
2022-11-21T22:48:54.546Z,-1.76
2022-11-21T22:52:21.354Z,-1.74
2022-11-21T22:55:55.985Z,-1.73
2022-11-21T22:59:22.789Z,-1.70
2022-11-21T23:02:49.530Z,-1.67
2022-11-21T23:06:56.268Z,-1.64
2022-11-21T23:11:06.347Z,-1.64
2022-11-21T23:14:32.897Z,-1.64
2022-11-21T23:17:59.741Z,-1.63
2022-11-21T23:21:26.393Z,-1.61
2022-11-21T23:24:53.288Z,-1.59
2022-11-21T23:28:19.823Z,-1.56
2022-11-21T23:31:46.286Z,-1.56
2022-11-21T23:35:13.058Z,-1.56
2022-11-21T23:38:39.769Z,-1.57
2022-11-21T23:42:06.731Z,-1.56
2022-11-21T23:45:33.929Z,-1.54
2022-11-21T23:49:01.109Z,-1.51
2022-11-21T23:52:27.856Z,-1.49
2022-11-21T23:55:54.481Z,-1.51
2022-11-21T23:59:21.129Z,-1.51
